Time;durP1;ratioP1;P1;durP2;ratioP2;P2;SDS_P1;SDS_P2;PMS_P1;PMS_P2;Temp;Humidity;BMP_temperature;BMP_pressure;BME280_temperature;BME280_humidity;BME280_pressure;Samples;Min_cycle;Max_cycle;Signal;HPM_P1;HPM_P2
2024/02/10 00:00:19;;;;;;;;;;;;;;;-1.45;100.00;99753.57;109365;1251;73739;-65
2024/02/10 00:02:49;;;;;;;;;;;;;;;-1.45;100.00;99750.88;109372;1253;65879;-64
2024/02/10 00:05:16;;;;;;;;;;;;;;;-1.45;100.00;99747.97;109385;1251;71413;-65
2024/02/10 00:07:52;;;;;;;;;;;;;;;-1.45;100.00;99747.98;109400;1251;59651;-63
2024/02/10 00:10:20;;;;;;;;;;;;;;;-1.45;100.00;99745.06;109412;1251;59979;-66
2024/02/10 00:12:47;;;;;;;;;;;;;;;-1.46;100.00;99749.05;109384;1251;73749;-65
2024/02/10 00:15:15;;;;;;;;;;;;;;;-1.46;100.00;99749.61;109373;1251;65649;-65
2024/02/10 00:17:43;;;;;;;;;;;;;;;-1.48;100.00;99748.84;109351;1251;71383;-64
2024/02/10 00:20:13;;;;;;;;;;;;;;;-1.47;100.00;99746.62;109358;1253;61524;-65
2024/02/10 00:22:44;;;;;;;;;;;;;;;-1.48;100.00;99748.55;109381;1251;59003;-66
2024/02/10 00:25:11;;;;;;;;;;;;;;;-1.50;100.00;99750.40;109360;1251;74732;-65
2024/02/10 00:27:39;;;;;;;;;;;;;;;-1.50;100.00;99755.67;109420;1251;65693;-65
2024/02/10 00:30:07;;;;;;;;;;;;;;;-1.50;100.00;99751.21;109346;1251;71728;-65
2024/02/10 00:32:37;;;;;;;;;;;;;;;-1.48;100.00;99749.05;109327;1256;59485;-65
2024/02/10 00:35:05;;;;;;;;;;;;;;;-1.48;100.00;99745.64;109395;1253;60278;-65
2024/02/10 00:37:33;;;;;;;;;;;;;;;-1.49;100.00;99746.08;109400;1251;73418;-65
2024/02/10 00:40:03;;;;;;;;;;;;;;;-1.49;100.00;99744.73;109340;1251;65886;-65
2024/02/10 00:42:31;;;;;;;;;;;;;;;-1.50;100.00;99743.73;109368;1251;71471;-65
2024/02/10 00:44:59;;;;;;;;;;;;;;;-1.49;100.00;99741.63;109437;1251;59980;-65
2024/02/10 00:47:28;;;;;;;;;;;;;;;-1.48;100.00;99744.45;109381;1251;58949;-65
2024/02/10 00:50:01;;;;;;;;;;;;;;;-1.49;100.00;99741.66;109391;1251;73750;-63
2024/02/10 00:52:29;;;;;;;;;;;;;;;-1.51;100.00;99737.89;109461;1251;66985;-65
2024/02/10 00:54:57;;;;;;;;;;;;;;;-1.52;100.00;99736.92;109397;1252;71966;-65
2024/02/10 00:57:26;;;;;;;;;;;;;;;-1.54;100.00;99735.86;109304;1251;59729;-65
2024/02/10 00:59:53;;;;;;;;;;;;;;;-1.55;100.00;99736.45;109283;1251;59942;-65
2024/02/10 01:02:21;;;;;;;;;;;;;;;-1.54;100.00;99738.98;109353;1251;72486;-65
2024/02/10 01:04:48;;;;;;;;;;;;;;;-1.54;100.00;99735.70;109390;1251;67089;-65
2024/02/10 01:07:16;;;;;;;;;;;;;;;-1.55;100.00;99735.44;109342;1251;72819;-66
2024/02/10 01:09:46;;;;;;;;;;;;;;;-1.55;100.00;99736.33;109348;1251;60967;-63
2024/02/10 01:12:17;;;;;;;;;;;;;;;-1.54;100.00;99731.61;109380;1251;59774;-66
2024/02/10 01:14:45;;;;;;;;;;;;;;;-1.53;100.00;99728.52;109288;1251;74677;-66
2024/02/10 01:17:13;;;;;;;;;;;;;;;-1.54;100.00;99726.88;109246;1253;67345;-66
2024/02/10 01:19:49;;;;;;;;;;;;;;;-1.54;100.00;99722.30;109303;1254;72742;-66
2024/02/10 01:22:26;;;;;;;;;;;;;;;-1.54;100.00;99725.17;109349;1253;59860;-66
2024/02/10 01:24:56;;;;;;;;;;;;;;;-1.54;100.00;99725.53;109362;1253;59811;-66
2024/02/10 01:27:27;;;;;;;;;;;;;;;-1.54;100.00;99731.64;109383;1251;74744;-65
2024/02/10 01:29:57;;;;;;;;;;;;;;;-1.52;100.00;99737.90;109280;1251;67350;-65
2024/02/10 01:32:25;;;;;;;;;;;;;;;-1.49;100.00;99738.91;109281;1251;72725;-65
2024/02/10 01:34:53;;;;;;;;;;;;;;;-1.52;100.00;99735.92;109307;1251;59652;-65
2024/02/10 01:37:21;;;;;;;;;;;;;;;-1.54;100.00;99739.95;109356;1251;59993;-65
2024/02/10 01:39:53;;;;;;;;;;;;;;;-1.54;100.00;99739.95;109310;1252;74731;-65
2024/02/10 01:42:26;;;;;;;;;;;;;;;-1.55;100.00;99737.82;109263;1251;67109;-65
2024/02/10 01:44:53;;;;;;;;;;;;;;;-1.56;100.00;99736.26;109371;1252;71416;-66
2024/02/10 01:47:21;;;;;;;;;;;;;;;-1.56;100.00;99737.95;109313;1251;60914;-65
2024/02/10 01:49:48;;;;;;;;;;;;;;;-1.57;100.00;99739.56;109304;1251;59883;-65
2024/02/10 01:52:16;;;;;;;;;;;;;;;-1.59;100.00;99735.90;109278;1252;73475;-66
2024/02/10 01:54:47;;;;;;;;;;;;;;;-1.58;100.00;99736.87;109360;1252;67562;-66
2024/02/10 01:57:14;;;;;;;;;;;;;;;-1.57;100.00;99738.52;109325;1251;71451;-66
2024/02/10 01:59:43;;;;;;;;;;;;;;;-1.58;100.00;99740.81;109276;1253;59038;-65
2024/02/10 02:02:14;;;;;;;;;;;;;;;-1.61;100.00;99744.23;109291;1251;59696;-66
2024/02/10 02:04:43;;;;;;;;;;;;;;;-1.62;100.00;99749.44;109274;1251;74788;-66
2024/02/10 02:07:10;;;;;;;;;;;;;;;-1.61;100.00;99746.33;109368;1251;65652;-66
2024/02/10 02:09:37;;;;;;;;;;;;;;;-1.60;100.00;99749.47;109297;1252;73174;-67
2024/02/10 02:12:08;;;;;;;;;;;;;;;-1.60;100.00;99754.94;109329;1252;60903;-66
2024/02/10 02:14:36;;;;;;;;;;;;;;;-1.59;100.00;99754.15;109382;1252;59845;-66
2024/02/10 02:17:09;;;;;;;;;;;;;;;-1.60;100.00;99758.13;109348;1253;73387;-64
2024/02/10 02:19:42;;;;;;;;;;;;;;;-1.60;100.00;99760.08;109378;1250;66894;-66
2024/02/10 02:22:10;;;;;;;;;;;;;;;-1.60;100.00;99763.43;109472;1251;71762;-67
2024/02/10 02:24:38;;;;;;;;;;;;;;;-1.61;100.00;99769.36;109317;1253;59667;-67
2024/02/10 02:27:06;;;;;;;;;;;;;;;-1.63;100.00;99776.25;109289;1251;59793;-66
2024/02/10 02:29:33;;;;;;;;;;;;;;;-1.62;100.00;99781.80;109340;1253;74704;-66
2024/02/10 02:32:01;;;;;;;;;;;;;;;-1.61;100.00;99784.15;109379;1251;65697;-67
2024/02/10 02:34:33;;;;;;;;;;;;;;;-1.62;100.00;99786.41;109329;1252;72735;-66
2024/02/10 02:37:03;;;;;;;;;;;;;;;-1.61;100.00;99788.94;109332;1253;60227;-64
2024/02/10 02:39:33;;;;;;;;;;;;;;;-1.63;100.00;99788.67;109308;1251;60513;-66
2024/02/10 02:42:07;;;;;;;;;;;;;;;-1.63;100.00;99787.70;109378;1252;74802;-66
2024/02/10 02:44:35;;;;;;;;;;;;;;;-1.63;100.00;99782.25;109367;1252;66922;-66
2024/02/10 02:47:04;;;;;;;;;;;;;;;-1.64;100.00;99786.21;109268;1252;72548;-66
2024/02/10 02:49:34;;;;;;;;;;;;;;;-1.64;100.00;99786.26;109328;1252;60942;-66
2024/02/10 02:52:04;;;;;;;;;;;;;;;-1.65;100.00;99780.17;109332;1251;59070;-66
2024/02/10 02:54:33;;;;;;;;;;;;;;;-1.65;100.00;99788.06;109338;1253;74776;-64
2024/02/10 02:57:01;;;;;;;;;;;;;;;-1.66;100.00;99785.59;109447;1250;67228;-67
2024/02/10 02:59:28;;;;;;;;;;;;;;;-1.68;100.00;99791.46;109304;1253;72721;-67
2024/02/10 03:01:57;;;;;;;;;;;;;;;-1.67;100.00;99787.34;109370;1250;61105;-67
2024/02/10 03:04:25;;;;;;;;;;;;;;;-1.67;100.00;99788.55;109365;1252;59885;-67
2024/02/10 03:06:54;;;;;;;;;;;;;;;-1.66;100.00;99789.16;109305;1252;73505;-64
2024/02/10 03:09:21;;;;;;;;;;;;;;;-1.66;100.00;99793.21;109398;1251;67303;-65
2024/02/10 03:11:49;;;;;;;;;;;;;;;-1.65;100.00;99796.37;109375;1251;72766;-66
2024/02/10 03:14:17;;;;;;;;;;;;;;;-1.66;100.00;99795.40;109328;1251;59576;-66
2024/02/10 03:16:45;;;;;;;;;;;;;;;-1.66;100.00;99796.63;109333;1252;59430;-67
2024/02/10 03:19:13;;;;;;;;;;;;;;;-1.69;100.00;99799.41;109332;1252;75138;-67
2024/02/10 03:21:40;;;;;;;;;;;;;;;-1.67;100.00;99804.56;109358;1251;67287;-66
2024/02/10 03:24:08;;;;;;;;;;;;;;;-1.67;100.00;99802.80;109347;1251;72593;-67
2024/02/10 03:26:37;;;;;;;;;;;;;;;-1.67;100.00;99802.28;109291;1253;60968;-67
2024/02/10 03:29:05;;;;;;;;;;;;;;;-1.68;100.00;99804.61;109333;1251;58993;-67
2024/02/10 03:31:33;;;;;;;;;;;;;;;-1.69;100.00;99808.80;109366;1251;75465;-68
2024/02/10 03:34:01;;;;;;;;;;;;;;;-1.72;100.00;99804.84;109429;1250;66992;-68
2024/02/10 03:36:30;;;;;;;;;;;;;;;-1.71;100.00;99804.64;109360;1251;72745;-68
2024/02/10 03:39:07;;;;;;;;;;;;;;;-1.72;100.00;99805.91;109350;1251;60982;-67
2024/02/10 03:41:34;;;;;;;;;;;;;;;-1.72;100.00;99804.56;109363;1250;59017;-67
2024/02/10 03:44:02;;;;;;;;;;;;;;;-1.73;100.00;99806.85;109386;1252;73286;-68
2024/02/10 03:46:32;;;;;;;;;;;;;;;-1.74;100.00;99796.52;109357;1253;67066;-68
2024/02/10 03:49:00;;;;;;;;;;;;;;;-1.74;100.00;99800.96;109337;1252;72753;-66
2024/02/10 03:51:30;;;;;;;;;;;;;;;-1.74;100.00;99805.56;109358;1251;61267;-68
2024/02/10 03:53:57;;;;;;;;;;;;;;;-1.73;100.00;99813.33;109387;1251;58874;-68
2024/02/10 03:56:27;;;;;;;;;;;;;;;-1.73;100.00;99818.11;109355;1251;73471;-68
2024/02/10 03:58:55;;;;;;;;;;;;;;;-1.75;100.00;99816.88;109348;1252;67965;-68
2024/02/10 04:01:23;;;;;;;;;;;;;;;-1.76;100.00;99813.73;109293;1252;73220;-67
2024/02/10 04:03:51;;;;;;;;;;;;;;;-1.76;100.00;99812.63;109340;1252;59621;-67
2024/02/10 04:06:18;;;;;;;;;;;;;;;-1.76;100.00;99814.84;109367;1253;59841;-68
2024/02/10 04:08:46;;;;;;;;;;;;;;;-1.74;100.00;99818.15;109370;1251;73404;-67
2024/02/10 04:11:16;;;;;;;;;;;;;;;-1.74;100.00;99819.51;109309;1251;65706;-66
2024/02/10 04:13:45;;;;;;;;;;;;;;;-1.73;100.00;99820.97;109378;1251;71245;-68
2024/02/10 04:16:12;;;;;;;;;;;;;;;-1.73;100.00;99824.67;109326;1251;59677;-68
2024/02/10 04:18:40;;;;;;;;;;;;;;;-1.72;100.00;99822.10;109374;1252;59312;-68
2024/02/10 04:21:09;;;;;;;;;;;;;;;-1.72;100.00;99823.12;109305;1252;74763;-64
2024/02/10 04:23:37;;;;;;;;;;;;;;;-1.74;100.00;99822.73;109405;1250;65728;-68
2024/02/10 04:26:05;;;;;;;;;;;;;;;-1.75;100.00;99824.33;109446;1251;71472;-67
2024/02/10 04:28:36;;;;;;;;;;;;;;;-1.75;100.00;99819.75;109326;1250;59712;-67
2024/02/10 04:31:04;;;;;;;;;;;;;;;-1.76;100.00;99818.80;109335;1252;59628;-64
2024/02/10 04:33:31;;;;;;;;;;;;;;;-1.77;100.00;99823.80;109411;1250;74673;-67
2024/02/10 04:35:59;;;;;;;;;;;;;;;-1.77;100.00;99832.33;109466;1250;65483;-68
2024/02/10 04:38:26;;;;;;;;;;;;;;;-1.78;100.00;99833.94;109463;1250;72795;-67
2024/02/10 04:40:54;;;;;;;;;;;;;;;-1.78;100.00;99836.02;109433;1250;59960;-67
2024/02/10 04:43:22;;;;;;;;;;;;;;;-1.77;100.00;99842.00;109392;1251;59932;-67
2024/02/10 04:45:49;;;;;;;;;;;;;;;-1.77;100.00;99843.94;109434;1250;74728;-68
2024/02/10 04:48:20;;;;;;;;;;;;;;;-1.75;100.00;99847.39;109465;1250;67310;-67
2024/02/10 04:50:48;;;;;;;;;;;;;;;-1.75;100.00;99843.94;109401;1250;72582;-67
2024/02/10 04:53:15;;;;;;;;;;;;;;;-1.75;100.00;99847.66;109378;1251;59987;-68
2024/02/10 04:55:44;;;;;;;;;;;;;;;-1.76;100.00;99853.00;109442;1252;59162;-67
2024/02/10 04:58:12;;;;;;;;;;;;;;;-1.76;100.00;99857.31;109473;1250;74785;-68
2024/02/10 05:00:41;;;;;;;;;;;;;;;-1.76;100.00;99864.62;109441;1250;65850;-68
2024/02/10 05:03:09;;;;;;;;;;;;;;;-1.75;100.00;99866.95;109342;1252;72769;-67
2024/02/10 05:05:36;;;;;;;;;;;;;;;-1.73;100.00;99866.89;109429;1252;60993;-68
2024/02/10 05:08:06;;;;;;;;;;;;;;;-1.68;100.00;99863.23;109418;1251;58924;-67
2024/02/10 05:10:34;;;;;;;;;;;;;;;-1.69;100.00;99859.88;109444;1251;74698;-67
2024/02/10 05:13:01;;;;;;;;;;;;;;;-1.70;100.00;99864.19;109453;1250;67280;-64
2024/02/10 05:15:29;;;;;;;;;;;;;;;-1.69;100.00;99870.45;109388;1250;71435;-67
2024/02/10 05:17:56;;;;;;;;;;;;;;;-1.67;100.00;99870.63;109417;1251;60001;-67
2024/02/10 05:20:26;;;;;;;;;;;;;;;-1.67;100.00;99873.86;109427;1251;58952;-68
2024/02/10 05:22:57;;;;;;;;;;;;;;;-1.66;100.00;99873.98;109438;1251;74706;-67
2024/02/10 05:25:27;;;;;;;;;;;;;;;-1.65;100.00;99873.23;109406;1251;66309;-68
2024/02/10 05:28:01;;;;;;;;;;;;;;;-1.63;100.00;99876.48;109425;1250;71766;-68
2024/02/10 05:30:29;;;;;;;;;;;;;;;-1.62;100.00;99872.27;109367;1251;60939;-68
2024/02/10 05:33:00;;;;;;;;;;;;;;;-1.61;100.00;99872.23;109430;1251;58977;-65
2024/02/10 05:35:29;;;;;;;;;;;;;;;-1.60;100.00;99873.48;109405;1251;74725;-68
2024/02/10 05:37:58;;;;;;;;;;;;;;;-1.56;100.00;99879.34;109451;1250;67226;-69
2024/02/10 05:40:26;;;;;;;;;;;;;;;-1.54;100.00;99882.79;109418;1251;72758;-68
2024/02/10 05:42:58;;;;;;;;;;;;;;;-1.55;100.00;99883.19;109400;1251;59670;-67
2024/02/10 05:45:28;;;;;;;;;;;;;;;-1.54;100.00;99885.14;109475;1251;60370;-66
2024/02/10 05:47:56;;;;;;;;;;;;;;;-1.52;100.00;99885.31;109427;1251;73674;-67
2024/02/10 05:50:24;;;;;;;;;;;;;;;-1.49;100.00;99884.76;109433;1251;66966;-66
2024/02/10 05:52:52;;;;;;;;;;;;;;;-1.47;100.00;99886.80;109374;1251;72769;-64
2024/02/10 05:55:26;;;;;;;;;;;;;;;-1.43;100.00;99883.53;109403;1251;60901;-68
2024/02/10 05:57:55;;;;;;;;;;;;;;;-1.42;100.00;99879.98;109433;1251;59857;-67
2024/02/10 06:00:23;;;;;;;;;;;;;;;-1.41;100.00;99879.08;109421;1253;74715;-68
2024/02/10 06:02:51;;;;;;;;;;;;;;;-1.38;100.00;99880.91;109364;1251;65869;-66
2024/02/10 06:05:18;;;;;;;;;;;;;;;-1.37;100.00;99879.80;109426;1251;71727;-68
2024/02/10 06:07:48;;;;;;;;;;;;;;;-1.38;100.00;99878.46;109409;1253;59583;-69
2024/02/10 06:10:16;;;;;;;;;;;;;;;-1.34;100.00;99877.70;109418;1251;59904;-68
2024/02/10 06:12:44;;;;;;;;;;;;;;;-1.31;100.00;99884.30;109379;1251;74670;-64
2024/02/10 06:15:12;;;;;;;;;;;;;;;-1.30;100.00;99882.96;109383;1251;67644;-67
2024/02/10 06:17:40;;;;;;;;;;;;;;;-1.27;100.00;99886.84;109446;1251;71436;-69
2024/02/10 06:20:10;;;;;;;;;;;;;;;-1.26;100.00;99889.72;109430;1251;58899;-68
2024/02/10 06:22:41;;;;;;;;;;;;;;;-1.29;100.00;99892.26;109410;1251;61871;-67
2024/02/10 06:25:12;;;;;;;;;;;;;;;-1.30;100.00;99891.14;109444;1251;74681;-68
2024/02/10 06:27:45;;;;;;;;;;;;;;;-1.29;100.00;99895.05;109477;1251;67005;-68
2024/02/10 06:30:16;;;;;;;;;;;;;;;-1.30;100.00;99889.99;109418;1253;72739;-68
2024/02/10 06:32:44;;;;;;;;;;;;;;;-1.29;100.00;99889.38;109341;1250;60930;-69
2024/02/10 06:35:12;;;;;;;;;;;;;;;-1.26;100.00;99884.23;109455;1251;58876;-69
2024/02/10 06:37:40;;;;;;;;;;;;;;;-1.24;100.00;99882.66;109450;1251;75192;-69
2024/02/10 06:40:08;;;;;;;;;;;;;;;-1.22;100.00;99880.48;109458;1250;67009;-68
2024/02/10 06:42:37;;;;;;;;;;;;;;;-1.20;100.00;99877.98;109403;1252;71102;-64
2024/02/10 06:45:08;;;;;;;;;;;;;;;-1.17;100.00;99873.90;109441;1253;59679;-69
2024/02/10 06:47:36;;;;;;;;;;;;;;;-1.16;100.00;99878.17;109503;1251;59000;-69
2024/02/10 06:50:04;;;;;;;;;;;;;;;-1.15;100.00;99879.52;109468;1250;73422;-69
2024/02/10 06:52:34;;;;;;;;;;;;;;;-1.14;100.00;99878.71;109441;1250;67012;-64
2024/02/10 06:55:02;;;;;;;;;;;;;;;-1.13;100.00;99877.81;109379;1251;72698;-68
2024/02/10 06:57:33;;;;;;;;;;;;;;;-1.11;100.00;99879.37;109454;1251;60923;-69
2024/02/10 07:00:05;;;;;;;;;;;;;;;-1.07;100.00;99880.27;109508;1251;59283;-69
2024/02/10 07:02:32;;;;;;;;;;;;;;;-1.04;100.00;99880.34;109429;1251;73727;-63
2024/02/10 07:05:00;;;;;;;;;;;;;;;-1.02;100.00;99887.04;109440;1250;66966;-69
2024/02/10 07:07:28;;;;;;;;;;;;;;;-1.02;100.00;99885.11;109439;1253;71837;-69
2024/02/10 07:09:59;;;;;;;;;;;;;;;-1.02;100.00;99889.02;109480;1250;61057;-68
2024/02/10 07:12:26;;;;;;;;;;;;;;;-1.01;100.00;99886.20;109499;1250;60059;-70
2024/02/10 07:14:56;;;;;;;;;;;;;;;-1.00;100.00;99887.73;109403;1251;73534;-68
2024/02/10 07:17:24;;;;;;;;;;;;;;;-1.00;100.00;99884.13;109470;1250;67059;-68
2024/02/10 07:19:52;;;;;;;;;;;;;;;-0.99;100.00;99882.14;109413;1250;72745;-69
2024/02/10 07:22:20;;;;;;;;;;;;;;;-0.96;100.00;99878.38;109421;1251;60998;-70
2024/02/10 07:24:47;;;;;;;;;;;;;;;-0.92;100.00;99879.77;109430;1251;59989;-65
2024/02/10 07:27:16;;;;;;;;;;;;;;;-0.88;100.00;99885.27;109435;1250;74703;-68
2024/02/10 07:29:45;;;;;;;;;;;;;;;-0.86;100.00;99889.19;109443;1253;67004;-71
2024/02/10 07:32:12;;;;;;;;;;;;;;;-0.85;100.00;99891.64;109462;1250;72771;-69
2024/02/10 07:34:40;;;;;;;;;;;;;;;-0.84;100.00;99888.83;109403;1250;60925;-66
2024/02/10 07:37:09;;;;;;;;;;;;;;;-0.82;100.00;99891.73;109417;1251;60446;-69
2024/02/10 07:39:40;;;;;;;;;;;;;;;-0.79;100.00;99888.61;109464;1251;73412;-70
2024/02/10 07:42:10;;;;;;;;;;;;;;;-0.77;100.00;99887.26;109465;1250;66273;-69
2024/02/10 07:44:37;;;;;;;;;;;;;;;-0.75;100.00;99887.84;109479;1251;72737;-70
2024/02/10 07:47:05;;;;;;;;;;;;;;;-0.74;100.00;99882.27;109425;1251;59204;-70
2024/02/10 07:49:33;;;;;;;;;;;;;;;-0.71;100.00;99883.45;109449;1251;59552;-69
2024/02/10 07:52:01;;;;;;;;;;;;;;;-0.69;100.00;99884.63;109468;1251;73465;-70
2024/02/10 07:54:30;;;;;;;;;;;;;;;-0.65;100.00;99885.72;109482;1251;67420;-69
2024/02/10 07:56:58;;;;;;;;;;;;;;;-0.62;100.00;99885.42;109380;1251;72744;-70
2024/02/10 07:59:26;;;;;;;;;;;;;;;-0.57;100.00;99884.67;109376;1253;61000;-69
2024/02/10 08:01:54;;;;;;;;;;;;;;;-0.52;100.00;99875.61;109357;1252;59958;-69
2024/02/10 08:04:21;;;;;;;;;;;;;;;-0.48;100.00;99880.73;109395;1250;75118;-69
2024/02/10 08:06:50;;;;;;;;;;;;;;;-0.44;100.00;99879.78;109338;1252;66280;-67
2024/02/10 08:09:18;;;;;;;;;;;;;;;-0.42;100.00;99878.72;109373;1250;71665;-68
2024/02/10 08:11:45;;;;;;;;;;;;;;;-0.42;100.00;99889.14;109304;1252;59663;-69
2024/02/10 08:14:18;;;;;;;;;;;;;;;-0.40;100.00;99889.84;109339;1252;59948;-69
2024/02/10 08:16:49;;;;;;;;;;;;;;;-0.37;100.00;99892.18;109423;1250;74854;-68
2024/02/10 08:19:18;;;;;;;;;;;;;;;-0.33;100.00;99894.09;109471;1251;66943;-70
2024/02/10 08:21:46;;;;;;;;;;;;;;;-0.32;100.00;99897.54;109480;1250;71409;-70
2024/02/10 08:24:13;;;;;;;;;;;;;;;-0.30;100.00;99890.77;109405;1251;59740;-70
2024/02/10 08:26:41;;;;;;;;;;;;;;;-0.28;100.00;99889.38;109420;1251;58968;-65
2024/02/10 08:29:12;;;;;;;;;;;;;;;-0.25;100.00;99888.14;109490;1251;75449;-68
2024/02/10 08:31:39;;;;;;;;;;;;;;;-0.21;100.00;99886.11;109449;1250;65687;-68
2024/02/10 08:34:08;;;;;;;;;;;;;;;-0.17;100.00;99887.55;109417;1250;71449;-66
2024/02/10 08:36:35;;;;;;;;;;;;;;;-0.15;100.00;99883.91;109372;1250;60962;-68
2024/02/10 08:39:03;;;;;;;;;;;;;;;-0.13;100.00;99885.68;109365;1251;58986;-68
2024/02/10 08:41:31;;;;;;;;;;;;;;;-0.10;100.00;99888.84;109420;1253;75122;-69
2024/02/10 08:43:59;;;;;;;;;;;;;;;-0.10;100.00;99886.98;109332;1252;66609;-69
2024/02/10 08:46:27;;;;;;;;;;;;;;;-0.11;100.00;99887.01;109356;1252;71431;-71
2024/02/10 08:48:54;;;;;;;;;;;;;;;-0.09;100.00;99884.31;109329;1252;59693;-71
2024/02/10 08:51:24;;;;;;;;;;;;;;;-0.07;100.00;99889.42;109391;1252;59552;-74
2024/02/10 08:53:56;;;;;;;;;;;;;;;-0.05;100.00;99890.95;109395;1252;74732;-69
2024/02/10 08:56:28;;;;;;;;;;;;;;;-0.04;100.00;99892.39;109429;1252;67562;-70
2024/02/10 08:58:58;;;;;;;;;;;;;;;-0.06;100.00;99894.77;109474;1253;71427;-66
2024/02/10 09:01:26;;;;;;;;;;;;;;;-0.07;100.00;99898.79;109331;1252;60971;-71
2024/02/10 09:03:56;;;;;;;;;;;;;;;-0.07;100.00;99904.64;109383;1253;58967;-71
2024/02/10 09:06:24;;;;;;;;;;;;;;;-0.09;100.00;99901.52;109502;1252;74680;-72
2024/02/10 09:08:52;;;;;;;;;;;;;;;-0.09;100.00;99898.12;109347;1252;65697;-72
2024/02/10 09:11:19;;;;;;;;;;;;;;;-0.10;100.00;99895.67;109334;1252;73178;-70
2024/02/10 09:13:48;;;;;;;;;;;;;;;-0.11;100.00;99895.39;109361;1252;59686;-69
2024/02/10 09:16:16;;;;;;;;;;;;;;;-0.11;100.00;99896.43;109310;1253;59937;-70
2024/02/10 09:18:44;;;;;;;;;;;;;;;-0.13;100.00;99897.91;109358;1251;74676;-70
2024/02/10 09:21:17;;;;;;;;;;;;;;;-0.13;100.00;99899.00;109431;1251;68636;-70
2024/02/10 09:23:46;;;;;;;;;;;;;;;-0.13;100.00;99893.51;109452;1250;76076;-71
2024/02/10 09:26:16;;;;;;;;;;;;;;;-0.11;100.00;99890.80;109437;1251;63083;-68
2024/02/10 09:28:44;;;;;;;;;;;;;;;-0.10;100.00;99893.05;109435;1251;58835;-67
2024/02/10 09:31:14;;;;;;;;;;;;;;;-0.08;100.00;99890.58;109452;1252;76382;-69
2024/02/10 09:33:46;;;;;;;;;;;;;;;-0.08;100.00;99894.09;109407;1252;66918;-67
2024/02/10 09:36:14;;;;;;;;;;;;;;;-0.07;100.00;99892.17;109393;1251;72744;-67
2024/02/10 09:38:41;;;;;;;;;;;;;;;-0.03;100.00;99887.24;109391;1253;59219;-64
2024/02/10 09:41:09;;;;;;;;;;;;;;;-0.01;100.00;99882.95;109377;1251;61880;-66
2024/02/10 09:43:37;;;;;;;;;;;;;;;0.03;100.00;99883.48;109470;1251;76726;-67
2024/02/10 09:46:10;;;;;;;;;;;;;;;0.02;100.00;99881.19;109473;1253;66220;-68
2024/02/10 09:48:40;;;;;;;;;;;;;;;0.05;100.00;99883.71;109523;1251;71679;-69
2024/02/10 09:51:08;;;;;;;;;;;;;;;0.07;100.00;99889.33;109395;1251;62594;-68
2024/02/10 09:53:36;;;;;;;;;;;;;;;0.09;100.00;99888.68;109486;1251;59879;-66
2024/02/10 09:56:03;;;;;;;;;;;;;;;0.10;100.00;99887.36;109398;1254;73470;-67
2024/02/10 09:58:31;;;;;;;;;;;;;;;0.13;100.00;99889.52;109392;1253;67433;-65
2024/02/10 10:01:01;;;;;;;;;;;;;;;0.15;100.00;99890.17;109175;1251;71462;-66
2024/02/10 10:03:30;;;;;;;;;;;;;;;0.20;100.00;99889.40;109439;1253;59004;-68
2024/02/10 10:05:59;;;;;;;;;;;;;;;0.21;100.00;99895.88;109455;1251;59909;-68
2024/02/10 10:08:27;;;;;;;;;;;;;;;0.21;100.00;99896.34;109438;1251;73471;-69
2024/02/10 10:10:56;;;;;;;;;;;;;;;0.22;100.00;99896.07;109408;1252;67756;-68
2024/02/10 10:13:24;;;;;;;;;;;;;;;0.22;100.00;99892.48;109419;1251;72702;-71
2024/02/10 10:15:51;;;;;;;;;;;;;;;0.24;100.00;99895.75;109416;1252;60050;-70
2024/02/10 10:18:23;;;;;;;;;;;;;;;0.26;100.00;99898.89;109458;1251;58834;-71
2024/02/10 10:20:51;;;;;;;;;;;;;;;0.25;100.00;99895.55;109484;1252;74761;-71
2024/02/10 10:23:19;;;;;;;;;;;;;;;0.24;100.00;99895.25;109433;1251;67008;-70
2024/02/10 10:25:46;;;;;;;;;;;;;;;0.22;100.00;99901.54;109454;1252;74368;-73
2024/02/10 10:28:16;;;;;;;;;;;;;;;0.21;100.00;99899.73;109421;1253;61750;-71
2024/02/10 10:30:45;;;;;;;;;;;;;;;0.22;100.00;99899.20;109471;1251;60853;-72
2024/02/10 10:33:12;;;;;;;;;;;;;;;0.22;100.00;99894.37;109431;1251;74832;-66
2024/02/10 10:35:44;;;;;;;;;;;;;;;0.20;100.00;99894.02;109368;1251;67091;-72
2024/02/10 10:38:12;;;;;;;;;;;;;;;0.17;100.00;99895.45;109418;1251;72796;-72
2024/02/10 10:40:40;;;;;;;;;;;;;;;0.15;100.00;99890.55;109406;1251;59911;-73
2024/02/10 10:43:10;;;;;;;;;;;;;;;0.13;100.00;99888.14;109422;1252;58876;-71
2024/02/10 10:45:42;;;;;;;;;;;;;;;0.13;100.00;99886.39;109407;1256;77614;-74
2024/02/10 10:48:10;;;;;;;;;;;;;;;0.13;100.00;99884.88;109444;1251;68248;-71
2024/02/10 10:50:37;;;;;;;;;;;;;;;0.12;100.00;99886.35;109444;1251;72780;-75
2024/02/10 10:53:11;;;;;;;;;;;;;;;0.11;100.00;99881.42;109385;1251;58978;-77
2024/02/10 10:55:42;;;;;;;;;;;;;;;0.11;100.00;99873.91;109387;1253;61046;-74
2024/02/10 10:58:39;;;;;;;;;;;;;;;0.13;100.00;99869.55;109367;1251;73460;-73
2024/02/10 11:01:07;;;;;;;;;;;;;;;0.11;100.00;99860.58;109372;1251;67140;-71
2024/02/10 11:03:42;;;;;;;;;;;;;;;0.12;100.00;99866.02;109425;1251;72623;-74
2024/02/10 11:06:11;;;;;;;;;;;;;;;0.11;100.00;99864.68;109482;1251;59672;-75
2024/02/10 11:08:42;;;;;;;;;;;;;;;0.14;100.00;99870.14;109471;1251;60025;-68
2024/02/10 11:11:12;;;;;;;;;;;;;;;0.12;100.00;99867.85;109428;1253;73454;-77
2024/02/10 11:13:39;;;;;;;;;;;;;;;0.12;100.00;99866.51;109447;1250;67017;-76
2024/02/10 11:16:14;;;;;;;;;;;;;;;0.13;100.00;99871.28;109486;1252;74687;-78
2024/02/10 11:18:56;;;;;;;;;;;;;;;0.13;100.00;99869.52;109494;1251;59043;-76
2024/02/10 11:21:26;;;;;;;;;;;;;;;0.13;100.00;99863.52;109426;1253;58946;-78
2024/02/10 11:24:05;;;;;;;;;;;;;;;0.16;100.00;99867.17;109096;1252;285320;-82
2024/02/10 11:26:33;;;;;;;;;;;;;;;0.18;100.00;99868.44;109365;1250;65880;-67
2024/02/10 11:29:01;;;;;;;;;;;;;;;0.17;100.00;99861.13;109423;1253;72764;-79
2024/02/10 11:31:28;;;;;;;;;;;;;;;0.17;100.00;99864.11;109458;1253;62837;-79
2024/02/10 11:34:01;;;;;;;;;;;;;;;0.18;100.00;99860.70;109439;1251;59484;-76
2024/02/10 11:36:29;;;;;;;;;;;;;;;0.19;100.00;99866.41;109444;1250;74762;-67
2024/02/10 11:38:56;;;;;;;;;;;;;;;0.22;100.00;99865.20;109428;1252;65776;-69
2024/02/10 11:41:24;;;;;;;;;;;;;;;0.22;100.00;99869.27;109392;1251;74834;-69
2024/02/10 11:43:52;;;;;;;;;;;;;;;0.22;100.00;99873.36;109456;1253;59783;-68
2024/02/10 11:46:20;;;;;;;;;;;;;;;0.20;100.00;99875.59;109490;1251;59917;-69
2024/02/10 11:48:47;;;;;;;;;;;;;;;0.19;100.00;99876.39;109436;1251;73861;-69
2024/02/10 11:51:17;;;;;;;;;;;;;;;0.19;100.00;99876.20;109522;1250;66939;-68
2024/02/10 11:53:45;;;;;;;;;;;;;;;0.21;100.00;99873.83;109462;1252;71728;-68
2024/02/10 11:56:12;;;;;;;;;;;;;;;0.21;100.00;99875.37;109426;1253;62155;-69
2024/02/10 11:58:40;;;;;;;;;;;;;;;0.14;100.00;99875.04;109441;1253;59884;-67
2024/02/10 12:01:08;;;;;;;;;;;;;;;0.11;100.00;99878.73;109388;1251;76101;-69
2024/02/10 12:03:36;;;;;;;;;;;;;;;0.09;100.00;99877.86;109379;1251;68173;-68
2024/02/10 12:06:03;;;;;;;;;;;;;;;0.09;100.00;99883.86;109466;1251;72779;-68
2024/02/10 12:08:32;;;;;;;;;;;;;;;0.11;100.00;99889.63;109429;1251;63070;-68
2024/02/10 12:11:00;;;;;;;;;;;;;;;0.11;100.00;99890.66;109433;1254;60627;-67
2024/02/10 12:13:27;;;;;;;;;;;;;;;0.14;100.00;99889.29;109489;1251;74712;-70
2024/02/10 12:16:01;;;;;;;;;;;;;;;0.15;100.00;99889.84;109464;1251;69427;-70
2024/02/10 12:18:29;;;;;;;;;;;;;;;0.14;100.00;99896.58;109440;1251;74211;-70
2024/02/10 12:20:57;;;;;;;;;;;;;;;0.09;100.00;99898.34;109418;1251;61479;-71
2024/02/10 12:23:29;;;;;;;;;;;;;;;0.06;100.00;99890.58;109480;1251;58952;-70
2024/02/10 12:26:03;;;;;;;;;;;;;;;0.04;100.00;99898.31;109465;1251;74008;-70
2024/02/10 12:28:31;;;;;;;;;;;;;;;0.02;100.00;99898.26;109424;1251;66938;-67
2024/02/10 12:30:59;;;;;;;;;;;;;;;0.01;100.00;99902.79;109386;1251;73081;-70
2024/02/10 12:33:27;;;;;;;;;;;;;;;-0.00;100.00;99906.64;109444;1256;60998;-68
2024/02/10 12:35:55;;;;;;;;;;;;;;;-0.01;100.00;99902.41;109436;1251;60948;-70